createdAt,value
2019-05-20T00:01:13.086Z,15.20
2019-05-20T00:03:42.499Z,15.10
2019-05-20T00:06:11.973Z,15.10
2019-05-20T00:08:41.372Z,15.10
2019-05-20T00:11:10.794Z,15.00
2019-05-20T00:13:40.391Z,15.00
2019-05-20T00:16:11.443Z,14.90
2019-05-20T00:18:41.754Z,14.90
2019-05-20T00:21:16.575Z,14.90
2019-05-20T00:23:47.824Z,14.90
2019-05-20T00:26:20.533Z,14.90
2019-05-20T00:28:50.407Z,14.90
2019-05-20T00:31:20.207Z,14.90
2019-05-20T00:33:57.874Z,14.90
2019-05-20T00:36:31.946Z,14.80
2019-05-20T00:39:20.802Z,14.80
2019-05-20T00:41:50.819Z,14.90
2019-05-20T00:44:22.327Z,14.80
2019-05-20T00:46:51.693Z,14.80
2019-05-20T00:49:21.163Z,14.80
2019-05-20T00:51:50.908Z,14.70
2019-05-20T00:54:20.516Z,14.70
2019-05-20T00:56:53.806Z,14.70
2019-05-20T00:59:23.249Z,14.70
2019-05-20T01:01:52.987Z,14.70
2019-05-20T01:04:22.947Z,14.60
2019-05-20T01:06:53.248Z,14.60
2019-05-20T01:09:22.646Z,14.60
2019-05-20T01:11:52.021Z,14.60
2019-05-20T01:14:21.681Z,14.60
2019-05-20T01:16:51.431Z,14.60
2019-05-20T01:19:21.336Z,14.60
2019-05-20T01:21:51.281Z,14.60
2019-05-20T01:24:23.335Z,14.60
2019-05-20T01:26:52.694Z,14.50
2019-05-20T01:29:22.445Z,14.50
2019-05-20T01:31:51.818Z,14.50
2019-05-20T01:34:31.240Z,14.30
2019-05-20T01:37:02.533Z,14.30
2019-05-20T01:39:36.073Z,14.20
2019-05-20T01:42:06.510Z,14.20
2019-05-20T01:44:36.811Z,14.00
2019-05-20T01:47:07.535Z,14.00
2019-05-20T01:49:37.633Z,14.00
2019-05-20T01:52:07.631Z,14.00
2019-05-20T01:54:38.530Z,14.00
2019-05-20T01:57:08.136Z,13.90
2019-05-20T01:59:40.117Z,13.90
2019-05-20T02:02:09.628Z,13.90
2019-05-20T02:04:38.986Z,13.80
2019-05-20T02:07:08.303Z,13.80
2019-05-20T02:09:37.688Z,13.80
2019-05-20T02:12:07.203Z,13.80
2019-05-20T02:14:41.408Z,13.80
2019-05-20T02:17:10.907Z,13.80
2019-05-20T02:19:40.312Z,13.80
2019-05-20T02:22:09.708Z,13.80
2019-05-20T02:24:39.059Z,13.70
2019-05-20T02:27:08.929Z,13.70
2019-05-20T02:29:38.623Z,13.70
2019-05-20T02:32:08.313Z,13.70
2019-05-20T02:34:37.704Z,13.80
2019-05-20T02:37:07.165Z,13.80
2019-05-20T02:39:36.582Z,13.80
2019-05-20T02:42:06.098Z,13.80
2019-05-20T02:44:35.962Z,13.80
2019-05-20T02:47:05.938Z,13.80
2019-05-20T02:49:35.281Z,13.80
2019-05-20T02:54:33.913Z,13.90
2019-05-20T02:57:03.684Z,13.90
2019-05-20T02:59:33.223Z,13.90
2019-05-20T03:02:02.626Z,14.20
2019-05-20T03:04:32.213Z,14.00
2019-05-20T03:07:04.070Z,14.00
2019-05-20T03:09:33.381Z,14.00
2019-05-20T03:12:03.057Z,13.90
2019-05-20T03:14:32.746Z,13.90
2019-05-20T03:17:03.496Z,13.90
2019-05-20T03:19:33.252Z,13.90
2019-05-20T03:22:02.778Z,13.90
2019-05-20T03:24:32.499Z,13.90
2019-05-20T03:27:02.111Z,13.90
2019-05-20T03:29:35.432Z,13.80
2019-05-20T03:32:06.443Z,13.80
2019-05-20T03:34:47.999Z,13.90
2019-05-20T03:37:09.059Z,13.90
2019-05-20T03:39:38.518Z,13.90
2019-05-20T03:42:07.966Z,14.00
2019-05-20T03:44:37.284Z,14.00
2019-05-20T03:49:36.377Z,14.10
2019-05-20T03:52:05.752Z,14.10
2019-05-20T03:54:35.167Z,14.10
2019-05-20T03:57:05.038Z,14.20
2019-05-20T03:59:34.507Z,14.20
2019-05-20T04:02:04.429Z,14.20
2019-05-20T04:04:33.751Z,14.30
2019-05-20T04:07:03.343Z,14.30
2019-05-20T04:09:32.728Z,14.30
2019-05-20T04:12:03.121Z,14.30
2019-05-20T04:14:33.147Z,14.40
2019-05-20T04:17:03.437Z,14.40
2019-05-20T04:19:33.139Z,14.40
2019-05-20T04:22:02.591Z,14.50
2019-05-20T04:24:32.315Z,14.50
2019-05-20T04:27:01.689Z,14.60
2019-05-20T04:29:31.053Z,14.60
2019-05-20T04:32:00.829Z,14.60
2019-05-20T04:34:30.011Z,14.70
2019-05-20T04:37:00.061Z,14.60
2019-05-20T04:39:29.329Z,14.70
2019-05-20T04:41:58.759Z,14.70
2019-05-20T04:44:28.028Z,14.80
2019-05-20T04:46:58.188Z,14.80
2019-05-20T04:51:56.986Z,14.90
2019-05-20T04:54:29.353Z,14.90
2019-05-20T04:56:58.741Z,14.90
2019-05-20T04:59:29.004Z,15.00
2019-05-20T05:01:58.329Z,15.00
2019-05-20T05:04:28.295Z,15.10
2019-05-20T05:06:57.757Z,15.20
2019-05-20T05:09:27.482Z,15.40
2019-05-20T05:14:26.020Z,15.50
2019-05-20T05:16:55.522Z,15.50
2019-05-20T05:19:25.274Z,15.60
2019-05-20T05:21:54.653Z,15.60
2019-05-20T05:24:24.257Z,15.80
2019-05-20T05:26:53.739Z,15.80
2019-05-20T05:29:23.192Z,15.90
2019-05-20T05:31:53.204Z,15.90
2019-05-20T05:34:36.702Z,16.00
2019-05-20T05:37:06.516Z,16.00
2019-05-20T05:39:36.053Z,16.10
2019-05-20T05:42:05.642Z,16.20
2019-05-20T05:44:35.085Z,16.30
2019-05-20T05:47:07.128Z,16.30
2019-05-20T05:49:36.398Z,16.30
2019-05-20T05:52:05.818Z,16.40
2019-05-20T05:54:35.734Z,16.40
2019-05-20T05:57:05.251Z,16.50
2019-05-20T05:59:35.031Z,16.50
2019-05-20T06:02:08.880Z,16.50
2019-05-20T06:04:38.173Z,16.50
2019-05-20T06:09:39.608Z,16.60
2019-05-20T06:12:12.811Z,16.60
2019-05-20T06:14:45.753Z,16.70
2019-05-20T06:17:16.153Z,16.80
2019-05-20T06:19:45.913Z,16.90
2019-05-20T06:22:16.166Z,16.90
2019-05-20T06:24:45.617Z,16.90
2019-05-20T06:27:14.987Z,17.00
2019-05-20T06:29:44.404Z,17.00
2019-05-20T06:32:15.278Z,17.10
2019-05-20T06:34:44.854Z,17.20
2019-05-20T06:37:16.607Z,17.20
2019-05-20T06:39:46.018Z,17.20
2019-05-20T06:42:15.816Z,17.20
2019-05-20T06:44:53.053Z,17.20
2019-05-20T06:47:17.456Z,17.10
2019-05-20T06:49:49.788Z,17.00
2019-05-20T06:52:34.985Z,17.00
2019-05-20T06:54:50.609Z,16.90
2019-05-20T06:57:19.956Z,16.90
2019-05-20T06:59:49.779Z,16.80
2019-05-20T07:02:20.196Z,16.80
2019-05-20T07:04:49.942Z,16.80
2019-05-20T07:07:21.600Z,16.90
2019-05-20T07:09:51.480Z,17.10
2019-05-20T07:12:20.735Z,17.20
2019-05-20T07:14:50.207Z,17.20
2019-05-20T07:17:20.494Z,17.30
2019-05-20T07:19:49.776Z,17.60
2019-05-20T07:22:21.486Z,17.80
2019-05-20T07:24:50.818Z,17.80
2019-05-20T07:27:20.602Z,17.90
2019-05-20T07:29:49.850Z,18.10
2019-05-20T07:32:19.263Z,18.20
2019-05-20T07:34:48.819Z,18.30
2019-05-20T07:37:18.188Z,18.30
2019-05-20T07:39:47.979Z,18.20
2019-05-20T07:42:17.377Z,18.20
2019-05-20T07:44:48.837Z,18.40
2019-05-20T07:47:18.327Z,18.50
2019-05-20T07:49:48.236Z,18.60
2019-05-20T07:52:17.830Z,18.60
2019-05-20T07:54:48.469Z,18.50
2019-05-20T07:57:18.651Z,18.80
2019-05-20T08:02:18.541Z,18.70
2019-05-20T08:04:47.831Z,18.70
2019-05-20T08:07:27.349Z,18.70
2019-05-20T08:09:48.798Z,18.60
2019-05-20T08:12:24.217Z,18.50
2019-05-20T08:14:54.599Z,18.50
2019-05-20T08:17:23.976Z,18.50
2019-05-20T08:19:53.853Z,18.50
2019-05-20T08:22:24.313Z,18.50
2019-05-20T08:24:54.103Z,18.60
2019-05-20T08:27:23.538Z,18.60
2019-05-20T08:29:52.906Z,18.60
2019-05-20T08:32:22.917Z,18.70
2019-05-20T08:34:52.544Z,18.80
2019-05-20T08:37:21.781Z,18.80
2019-05-20T08:39:55.491Z,18.90
2019-05-20T08:42:27.186Z,19.00
2019-05-20T08:44:56.788Z,19.10
2019-05-20T08:47:26.267Z,19.30
2019-05-20T08:49:55.638Z,19.30
2019-05-20T08:52:25.101Z,19.40
2019-05-20T08:54:54.490Z,19.50
2019-05-20T08:57:23.841Z,19.50
2019-05-20T08:59:53.235Z,19.50
2019-05-20T09:02:22.881Z,19.20
2019-05-20T09:04:55.583Z,19.10
2019-05-20T09:07:24.946Z,19.00
2019-05-20T09:09:54.834Z,19.10
2019-05-20T09:12:25.639Z,19.10
2019-05-20T09:14:55.111Z,19.20
2019-05-20T09:17:26.876Z,19.20
2019-05-20T09:19:56.617Z,19.20
2019-05-20T09:22:27.967Z,19.20
2019-05-20T09:25:03.854Z,19.10
2019-05-20T09:27:33.179Z,19.30
2019-05-20T09:30:02.918Z,19.30
2019-05-20T09:32:32.264Z,19.30
2019-05-20T09:35:01.789Z,19.40
2019-05-20T09:37:31.096Z,19.40
2019-05-20T09:40:00.360Z,19.40
2019-05-20T09:42:29.809Z,19.60
2019-05-20T09:45:02.883Z,19.60
2019-05-20T09:47:30.163Z,19.80
2019-05-20T09:49:59.657Z,19.80
2019-05-20T09:52:29.257Z,19.80
2019-05-20T09:54:58.536Z,19.80
2019-05-20T09:57:30.187Z,19.80
2019-05-20T09:59:59.653Z,19.70
2019-05-20T10:02:36.334Z,19.60
2019-05-20T10:05:01.419Z,19.40
2019-05-20T10:07:33.751Z,19.50
2019-05-20T10:10:03.438Z,19.50
2019-05-20T10:12:45.652Z,19.60
2019-05-20T10:17:36.347Z,19.60
2019-05-20T10:22:37.533Z,19.60
2019-05-20T10:25:07.206Z,19.70
2019-05-20T10:27:36.601Z,19.80
2019-05-20T10:30:06.963Z,19.70
2019-05-20T10:32:36.782Z,19.50
2019-05-20T10:35:13.690Z,19.40
2019-05-20T10:37:43.575Z,19.40
2019-05-20T10:40:14.093Z,19.20
2019-05-20T10:42:43.431Z,19.10
2019-05-20T10:45:13.005Z,19.00
2019-05-20T10:47:42.246Z,18.90
2019-05-20T10:50:12.869Z,18.80
2019-05-20T10:52:42.465Z,18.80
2019-05-20T10:55:12.022Z,18.70
2019-05-20T10:57:41.382Z,18.70
2019-05-20T11:00:11.264Z,18.80
2019-05-20T11:02:42.604Z,18.90
2019-05-20T11:05:12.090Z,18.90
2019-05-20T11:07:41.472Z,19.00
2019-05-20T11:10:11.610Z,19.00
2019-05-20T11:12:41.262Z,19.00
2019-05-20T11:15:11.488Z,19.10
2019-05-20T11:17:40.875Z,19.20
2019-05-20T11:20:11.003Z,19.20
2019-05-20T11:22:40.406Z,19.30
2019-05-20T11:25:11.148Z,19.40
2019-05-20T11:27:40.513Z,19.40
2019-05-20T11:30:10.679Z,19.40
2019-05-20T11:32:40.190Z,19.40
2019-05-20T11:35:09.956Z,19.30
2019-05-20T11:37:39.610Z,19.20
2019-05-20T11:40:10.383Z,19.10
2019-05-20T11:42:40.346Z,19.00
2019-05-20T11:45:10.269Z,19.00
2019-05-20T11:47:39.660Z,19.00
2019-05-20T11:50:10.095Z,19.00
2019-05-20T11:52:39.577Z,19.10
2019-05-20T11:55:10.394Z,19.20
2019-05-20T11:57:39.731Z,19.30
2019-05-20T12:00:10.031Z,19.30
2019-05-20T12:02:39.766Z,19.40
2019-05-20T12:05:10.006Z,19.40
2019-05-20T12:07:39.392Z,19.30
2019-05-20T12:10:12.373Z,19.30
2019-05-20T12:12:46.099Z,19.00
2019-05-20T12:15:15.553Z,18.80
2019-05-20T12:17:44.777Z,18.70
2019-05-20T12:20:14.836Z,18.70
2019-05-20T12:22:47.415Z,18.80
2019-05-20T12:25:16.744Z,18.70
2019-05-20T12:27:46.496Z,18.50
2019-05-20T12:30:18.949Z,18.50
2019-05-20T12:32:48.496Z,18.50
2019-05-20T12:35:17.968Z,18.50
2019-05-20T12:37:47.477Z,18.60
2019-05-20T12:40:18.414Z,18.60
2019-05-20T12:42:48.208Z,18.40
2019-05-20T12:45:17.493Z,18.50
2019-05-20T12:47:47.152Z,18.40
2019-05-20T12:50:18.183Z,18.30
2019-05-20T12:52:47.712Z,18.10
2019-05-20T12:55:17.323Z,18.10
2019-05-20T12:57:46.876Z,18.10
2019-05-20T13:00:17.644Z,17.90
2019-05-20T13:02:47.148Z,17.90
2019-05-20T13:05:16.867Z,17.90
2019-05-20T13:07:46.442Z,18.00
2019-05-20T13:10:29.267Z,17.90
2019-05-20T13:12:48.341Z,17.80
2019-05-20T13:17:48.401Z,17.80
2019-05-20T13:20:18.293Z,17.70
2019-05-20T13:22:47.720Z,17.50
2019-05-20T13:25:17.316Z,17.50
2019-05-20T13:27:47.007Z,17.30
2019-05-20T13:30:16.925Z,17.10
2019-05-20T13:32:46.967Z,17.20
2019-05-20T13:35:17.084Z,17.20
2019-05-20T13:37:47.441Z,16.70
2019-05-20T13:40:17.146Z,16.60
2019-05-20T13:42:47.291Z,16.40
2019-05-20T13:45:17.111Z,16.40
2019-05-20T13:47:46.624Z,16.40
2019-05-20T13:50:18.012Z,16.40
2019-05-20T13:52:50.578Z,16.30
2019-05-20T13:55:22.087Z,16.30
2019-05-20T13:57:51.986Z,16.30
2019-05-20T14:00:24.403Z,16.30
2019-05-20T14:02:54.295Z,16.20
2019-05-20T14:05:27.565Z,16.20
2019-05-20T14:07:58.011Z,16.30
2019-05-20T14:10:27.809Z,16.30
2019-05-20T14:12:57.240Z,16.40
2019-05-20T14:15:27.207Z,16.40
2019-05-20T14:17:57.195Z,16.40
2019-05-20T14:20:26.691Z,16.40
2019-05-20T14:22:56.154Z,16.30
2019-05-20T14:25:29.063Z,16.30
2019-05-20T14:27:59.944Z,16.30
2019-05-20T14:30:29.310Z,16.40
2019-05-20T14:32:59.204Z,16.40
2019-05-20T14:35:28.712Z,16.50
2019-05-20T14:37:58.317Z,16.50
2019-05-20T14:40:27.753Z,16.50
2019-05-20T14:42:59.569Z,16.50
2019-05-20T14:45:29.021Z,16.50
2019-05-20T14:47:58.414Z,16.50
2019-05-20T14:50:28.228Z,16.50
2019-05-20T14:52:58.008Z,16.50
2019-05-20T14:55:29.148Z,16.40
2019-05-20T14:57:58.468Z,16.30
2019-05-20T15:00:27.933Z,16.30
2019-05-20T15:02:57.431Z,16.10
2019-05-20T15:05:27.099Z,16.10
2019-05-20T15:07:56.996Z,16.10
2019-05-20T15:10:26.908Z,16.10
2019-05-20T15:12:56.693Z,16.00
2019-05-20T15:15:26.097Z,16.00
2019-05-20T15:17:55.693Z,15.90
2019-05-20T15:20:25.252Z,15.90
2019-05-20T15:22:54.999Z,15.90
2019-05-20T15:25:24.429Z,16.00
2019-05-20T15:27:54.467Z,16.00
2019-05-20T15:30:24.075Z,16.10
2019-05-20T15:32:54.937Z,16.10
2019-05-20T15:35:24.525Z,16.00
2019-05-20T15:37:54.250Z,16.00
2019-05-20T15:40:24.743Z,16.20
2019-05-20T15:42:54.479Z,16.30
2019-05-20T15:45:23.965Z,16.40
2019-05-20T15:47:53.750Z,16.30
2019-05-20T15:50:23.598Z,16.30
2019-05-20T15:52:53.115Z,16.50
2019-05-20T15:55:22.636Z,16.50
2019-05-20T15:57:52.348Z,16.50
2019-05-20T16:00:22.427Z,16.50
2019-05-20T16:02:52.470Z,16.50
2019-05-20T16:05:22.043Z,16.50
2019-05-20T16:07:52.082Z,16.60
2019-05-20T16:10:21.685Z,16.50
2019-05-20T16:12:55.343Z,16.50
2019-05-20T16:15:24.772Z,16.50
2019-05-20T16:17:54.987Z,16.60
2019-05-20T16:20:24.749Z,16.50
2019-05-20T16:22:54.502Z,16.50
2019-05-20T16:25:23.904Z,16.50
2019-05-20T16:27:53.336Z,16.50
2019-05-20T16:30:25.122Z,16.40
2019-05-20T16:32:54.482Z,16.50
2019-05-20T16:35:23.928Z,16.50
2019-05-20T16:37:53.332Z,16.50
2019-05-20T16:40:23.134Z,16.50
2019-05-20T16:42:52.622Z,16.40
2019-05-20T16:47:51.227Z,16.40
2019-05-20T16:50:21.090Z,16.40
2019-05-20T16:52:50.882Z,16.40
2019-05-20T16:55:21.060Z,16.40
2019-05-20T16:57:50.394Z,16.30
2019-05-20T17:00:31.541Z,16.30
2019-05-20T17:02:51.691Z,16.30
2019-05-20T17:05:20.963Z,16.30
2019-05-20T17:07:53.093Z,16.20
2019-05-20T17:10:22.439Z,16.20
2019-05-20T17:12:51.943Z,16.10
2019-05-20T17:15:21.251Z,16.10
2019-05-20T17:17:50.521Z,16.10
2019-05-20T17:20:19.903Z,16.10
2019-05-20T17:22:49.468Z,16.10
2019-05-20T17:25:18.979Z,16.10
2019-05-20T17:27:49.032Z,16.10
2019-05-20T17:30:21.860Z,16.10
2019-05-20T17:32:51.365Z,16.10
2019-05-20T17:35:20.873Z,16.10
2019-05-20T17:37:50.149Z,16.10
2019-05-20T17:40:20.101Z,16.00
2019-05-20T17:42:49.658Z,16.00
2019-05-20T17:45:19.542Z,16.00
2019-05-20T17:47:48.890Z,16.00
2019-05-20T17:50:19.109Z,16.00
2019-05-20T17:52:48.768Z,16.00
2019-05-20T17:55:20.181Z,16.00
2019-05-20T17:57:49.859Z,16.00
2019-05-20T18:00:22.924Z,15.90
2019-05-20T18:02:52.338Z,15.90
2019-05-20T18:05:21.653Z,15.90
2019-05-20T18:07:51.201Z,15.80
2019-05-20T18:10:24.565Z,15.80
2019-05-20T18:12:54.047Z,15.70
2019-05-20T18:15:23.847Z,15.70
2019-05-20T18:17:53.211Z,15.70
2019-05-20T18:20:22.620Z,15.70
2019-05-20T18:22:52.304Z,15.60
2019-05-20T18:25:21.624Z,15.60
2019-05-20T18:27:50.932Z,15.60
2019-05-20T18:30:20.402Z,15.60
2019-05-20T18:32:49.744Z,15.50
2019-05-20T18:35:31.962Z,15.50
2019-05-20T18:38:05.019Z,15.50
2019-05-20T18:40:34.466Z,15.50
2019-05-20T18:43:03.850Z,15.40
2019-05-20T18:45:33.509Z,15.40
2019-05-20T18:48:02.836Z,15.40
2019-05-20T18:50:32.731Z,15.30
2019-05-20T18:53:02.679Z,15.10
2019-05-20T18:55:34.880Z,15.10
2019-05-20T18:58:04.107Z,15.10
2019-05-20T19:00:33.540Z,15.10
2019-05-20T19:03:02.807Z,15.00
2019-05-20T19:05:32.121Z,15.10
2019-05-20T19:08:01.469Z,15.00
2019-05-20T19:10:30.890Z,15.00
2019-05-20T19:13:00.440Z,15.10
2019-05-20T19:15:29.992Z,15.10
2019-05-20T19:17:59.251Z,15.10
2019-05-20T19:20:28.514Z,15.10
2019-05-20T19:22:57.907Z,15.10
2019-05-20T19:25:37.415Z,15.10
2019-05-20T19:28:15.839Z,15.10
2019-05-20T19:30:45.922Z,15.10
2019-05-20T19:33:15.465Z,15.00
2019-05-20T19:35:44.807Z,15.00
2019-05-20T19:38:14.196Z,15.00
2019-05-20T19:40:43.502Z,15.00
2019-05-20T19:43:12.927Z,15.00
2019-05-20T19:45:42.370Z,15.00
2019-05-20T19:48:12.993Z,15.00
2019-05-20T19:50:42.478Z,15.10
2019-05-20T19:53:11.901Z,15.10
2019-05-20T19:55:41.584Z,15.10
2019-05-20T19:58:11.173Z,15.10
2019-05-20T20:00:40.541Z,15.10
2019-05-20T20:03:09.968Z,15.10
2019-05-20T20:05:39.466Z,15.10
2019-05-20T20:08:09.081Z,15.10
2019-05-20T20:10:48.121Z,15.10
2019-05-20T20:13:17.662Z,15.10
2019-05-20T20:15:47.108Z,15.10
2019-05-20T20:18:17.171Z,15.10
2019-05-20T20:20:46.574Z,15.10
2019-05-20T20:23:18.585Z,15.10
2019-05-20T20:25:47.990Z,15.10
2019-05-20T20:28:17.481Z,15.10
2019-05-20T20:30:47.854Z,15.00
2019-05-20T20:33:20.816Z,15.00
2019-05-20T20:35:50.590Z,15.00
2019-05-20T20:38:20.311Z,15.00
2019-05-20T20:40:50.009Z,14.90
2019-05-20T20:43:19.635Z,14.90
2019-05-20T20:45:49.038Z,14.80
2019-05-20T20:48:18.503Z,14.80
2019-05-20T20:50:48.110Z,14.80
2019-05-20T20:53:19.193Z,14.80
2019-05-20T20:55:48.476Z,14.80
2019-05-20T20:58:20.046Z,14.80
2019-05-20T21:00:50.618Z,14.80
2019-05-20T21:03:20.216Z,14.80
2019-05-20T21:05:50.090Z,14.80
2019-05-20T21:08:19.776Z,14.70
2019-05-20T21:10:49.151Z,14.80
2019-05-20T21:13:19.092Z,14.70
2019-05-20T21:15:48.758Z,14.70
2019-05-20T21:20:46.846Z,14.70
2019-05-20T21:23:16.763Z,14.70
2019-05-20T21:25:46.382Z,14.70
2019-05-20T21:28:16.155Z,14.80
2019-05-20T21:30:47.787Z,14.80
2019-05-20T21:33:17.534Z,14.80
2019-05-20T21:35:46.886Z,14.80
2019-05-20T21:38:16.254Z,14.80
2019-05-20T21:40:45.652Z,14.80
2019-05-20T21:43:19.055Z,14.70
2019-05-20T21:45:48.763Z,14.70
2019-05-20T21:48:18.459Z,14.70
2019-05-20T21:50:48.080Z,14.70
2019-05-20T21:53:20.138Z,14.60
2019-05-20T21:55:49.494Z,14.60
2019-05-20T21:58:18.949Z,14.60
2019-05-20T22:00:54.791Z,14.60
2019-05-20T22:03:25.261Z,14.60
2019-05-20T22:05:54.845Z,14.50
2019-05-20T22:08:24.226Z,14.50
2019-05-20T22:10:53.828Z,14.50
2019-05-20T22:13:23.875Z,14.50
2019-05-20T22:15:53.986Z,14.50
2019-05-20T22:18:23.302Z,14.50
2019-05-20T22:20:54.732Z,14.50
2019-05-20T22:23:43.042Z,14.40
2019-05-20T22:26:12.738Z,14.40
2019-05-20T22:28:42.178Z,14.30
2019-05-20T22:31:11.826Z,14.30
2019-05-20T22:33:42.665Z,14.30
2019-05-20T22:36:12.348Z,14.30
2019-05-20T22:38:41.672Z,14.20
2019-05-20T22:41:11.115Z,14.20
2019-05-20T22:43:40.737Z,14.20
2019-05-20T22:46:10.040Z,14.20
2019-05-20T22:48:39.493Z,14.10
2019-05-20T22:51:08.946Z,14.10
2019-05-20T22:53:38.591Z,14.10
2019-05-20T22:56:07.994Z,14.10
2019-05-20T22:58:38.745Z,14.10
2019-05-20T23:01:08.167Z,14.10
2019-05-20T23:03:56.611Z,14.10
2019-05-20T23:06:26.341Z,14.00
2019-05-20T23:08:55.792Z,14.00
2019-05-20T23:11:25.482Z,14.00
2019-05-20T23:13:55.179Z,14.00
2019-05-20T23:16:24.522Z,14.00
2019-05-20T23:18:54.285Z,14.00
2019-05-20T23:21:23.751Z,14.00
2019-05-20T23:23:53.118Z,14.00
2019-05-20T23:26:22.753Z,14.00
2019-05-20T23:28:52.326Z,14.00
2019-05-20T23:31:22.352Z,14.00
2019-05-20T23:33:51.648Z,14.00
2019-05-20T23:36:21.032Z,14.00
2019-05-20T23:38:50.379Z,14.00
2019-05-20T23:41:19.805Z,13.90
2019-05-20T23:43:49.460Z,13.90
2019-05-20T23:46:19.262Z,13.90
2019-05-20T23:48:48.552Z,13.90
2019-05-20T23:51:18.144Z,13.90
2019-05-20T23:53:47.786Z,13.80
2019-05-20T23:56:17.109Z,13.80
2019-05-20T23:58:47.004Z,13.80
